Time;durP1;ratioP1;P1;durP2;ratioP2;P2;SDS_P1;SDS_P2;PMS_P1;PMS_P2;Temp;Humidity;BMP_temperature;BMP_pressure;BME280_temperature;BME280_humidity;BME280_pressure;Samples;Min_cycle;Max_cycle;Signal;HPM_P1;HPM_P2
2021/10/08 00:01:39;;;;;;;2.87;2.57;;;11.40;99.90;;;;;;5068969;28;20282;-69
2021/10/08 00:04:05;;;;;;;3.20;2.90;;;11.40;99.90;;;;;;5052155;28;20215;-70
2021/10/08 00:06:31;;;;;;;2.80;2.50;;;11.40;99.90;;;;;;5051889;28;20306;-70
2021/10/08 00:08:57;;;;;;;3.33;2.83;;;11.30;99.90;;;;;;5052746;28;20513;-70
2021/10/08 00:11:24;;;;;;;3.50;2.50;;;11.30;99.90;;;;;;5048383;28;20461;-69
2021/10/08 00:13:50;;;;;;;3.40;2.57;;;11.30;99.90;;;;;;5032407;28;20448;-70
2021/10/08 00:16:16;;;;;;;3.00;2.40;;;11.30;99.90;;;;;;5048663;28;20552;-70
2021/10/08 00:18:45;;;;;;;3.67;3.13;;;11.30;99.90;;;;;;5047336;28;20513;-70
2021/10/08 00:21:11;;;;;;;2.43;2.23;;;11.20;99.90;;;;;;5035731;28;20461;-70
2021/10/08 00:23:37;;;;;;;3.00;2.70;;;11.20;99.90;;;;;;5067042;28;20449;-70
2021/10/08 00:26:03;;;;;;;9.03;3.33;;;11.20;99.90;;;;;;5052072;28;20233;-70
2021/10/08 00:28:28;;;;;;;2.27;2.03;;;11.20;99.90;;;;;;5063203;28;20537;-69
2021/10/08 00:30:54;;;;;;;3.60;2.80;;;11.20;99.90;;;;;;5035117;28;20281;-70
2021/10/08 00:33:20;;;;;;;2.80;2.50;;;11.20;99.90;;;;;;5039827;28;20709;-70
2021/10/08 00:35:47;;;;;;;2.63;2.23;;;11.20;99.90;;;;;;5052606;28;20225;-71
2021/10/08 00:38:13;;;;;;;3.20;2.60;;;11.10;99.90;;;;;;5035464;28;20532;-70
2021/10/08 00:40:41;;;;;;;3.07;2.77;;;11.10;99.90;;;;;;5065281;28;20230;-70
2021/10/08 00:43:08;;;;;;;2.70;2.50;;;11.10;99.90;;;;;;5051104;28;20579;-70
2021/10/08 00:45:34;;;;;;;2.97;2.13;;;11.10;99.90;;;;;;5053862;28;20461;-69
2021/10/08 00:48:06;;;;;;;3.23;2.93;;;11.10;99.90;;;;;;5042332;28;20437;-71
2021/10/08 00:50:37;;;;;;;3.77;2.80;;;11.10;99.90;;;;;;5065187;28;20525;-70
2021/10/08 00:53:04;;;;;;;3.73;2.63;;;11.10;99.90;;;;;;5051199;28;20473;-70
2021/10/08 00:55:31;;;;;;;2.47;2.27;;;11.10;99.90;;;;;;5067967;28;20453;-70
2021/10/08 00:57:59;;;;;;;3.20;2.93;;;11.10;99.90;;;;;;5031825;28;20489;-70
2021/10/08 01:00:24;;;;;;;3.30;2.40;;;11.00;99.90;;;;;;5051791;28;20532;-70
2021/10/08 01:02:50;;;;;;;3.37;2.13;;;11.00;99.90;;;;;;5050450;28;20548;-70
2021/10/08 01:05:16;;;;;;;4.20;2.63;;;11.00;99.90;;;;;;5048950;28;20226;-70
2021/10/08 01:07:41;;;;;;;2.17;1.97;;;11.00;99.90;;;;;;5068419;28;20211;-70
2021/10/08 01:10:09;;;;;;;3.37;2.40;;;11.00;99.90;;;;;;5051987;28;20310;-70
2021/10/08 01:12:38;;;;;;;4.07;2.40;;;11.00;99.90;;;;;;5049874;28;20489;-70
2021/10/08 01:15:05;;;;;;;2.80;2.47;;;11.00;99.90;;;;;;5055608;28;20464;-69
2021/10/08 01:17:32;;;;;;;2.47;2.27;;;10.90;99.90;;;;;;5040566;28;20919;-70
2021/10/08 01:20:05;;;;;;;2.90;2.50;;;10.90;99.90;;;;;;5039484;28;20456;-69
2021/10/08 01:22:35;;;;;;;3.70;2.20;;;10.90;99.90;;;;;;5059649;28;20514;-70
2021/10/08 01:25:02;;;;;;;6.40;3.20;;;10.90;99.90;;;;;;5055720;28;20442;-70
2021/10/08 01:27:28;;;;;;;3.17;2.47;;;10.80;99.90;;;;;;5055473;28;20461;-70
2021/10/08 01:30:00;;;;;;;2.83;2.63;;;10.80;99.90;;;;;;5039118;28;20531;-70
2021/10/08 01:32:38;;;;;;;2.67;2.37;;;10.80;99.90;;;;;;5036167;28;20607;-70
2021/10/08 01:35:05;;;;;;;2.83;2.17;;;10.80;99.90;;;;;;5053572;28;20464;-70
2021/10/08 01:37:33;;;;;;;2.90;2.50;;;10.80;99.90;;;;;;5055177;28;20521;-70
2021/10/08 01:40:02;;;;;;;4.07;2.83;;;10.80;99.90;;;;;;5038190;28;20540;-69
2021/10/08 01:42:28;;;;;;;3.47;2.27;;;10.80;99.90;;;;;;5054273;28;20203;-70
2021/10/08 01:44:54;;;;;;;3.27;2.70;;;10.80;99.90;;;;;;5052296;28;20444;-70
2021/10/08 01:47:20;;;;;;;6.23;2.80;;;10.70;99.90;;;;;;5056634;28;20461;-70
2021/10/08 01:49:47;;;;;;;2.63;2.17;;;10.70;99.90;;;;;;5038612;28;20226;-70
2021/10/08 01:52:13;;;;;;;2.83;2.50;;;10.70;99.90;;;;;;5037285;28;20965;-70
2021/10/08 01:54:45;;;;;;;2.80;2.33;;;10.70;99.90;;;;;;5054846;28;20453;-70
2021/10/08 01:57:11;;;;;;;2.53;2.17;;;10.70;99.90;;;;;;5053883;28;20454;-70
2021/10/08 01:59:38;;;;;;;3.80;2.57;;;10.70;99.90;;;;;;5037868;28;20453;-70
2021/10/08 02:02:06;;;;;;;2.60;2.10;;;10.60;99.90;;;;;;5051088;28;20487;-71
2021/10/08 02:04:32;;;;;;;2.40;2.00;;;10.60;99.90;;;;;;5054638;28;20453;-70
2021/10/08 02:06:58;;;;;;;3.70;2.17;;;10.70;99.90;;;;;;5038346;28;20364;-70
2021/10/08 02:09:24;;;;;;;3.17;2.40;;;10.70;99.90;;;;;;5052035;28;20215;-70
2021/10/08 02:11:50;;;;;;;3.30;2.20;;;10.70;99.90;;;;;;5033854;28;20469;-70
2021/10/08 02:14:16;;;;;;;6.93;2.23;;;10.60;99.90;;;;;;5038196;28;20446;-70
2021/10/08 02:16:47;;;;;;;2.33;2.13;;;10.70;99.90;;;;;;5039027;28;20223;-70
2021/10/08 02:19:13;;;;;;;3.23;2.70;;;10.60;99.90;;;;;;5038240;28;20533;-70
2021/10/08 02:21:43;;;;;;;2.23;1.80;;;10.60;99.90;;;;;;5050220;28;20450;-70
2021/10/08 02:24:11;;;;;;;2.50;2.30;;;10.60;99.90;;;;;;5070883;28;20805;-70
2021/10/08 02:26:42;;;;;;;2.37;2.17;;;10.60;99.90;;;;;;5037732;28;20463;-70
2021/10/08 02:29:09;;;;;;;4.70;2.47;;;10.60;99.90;;;;;;5035276;28;20461;-70
2021/10/08 02:31:36;;;;;;;5.30;1.93;;;10.60;99.90;;;;;;5050062;28;20662;-70
2021/10/08 02:34:04;;;;;;;2.60;2.10;;;10.50;99.90;;;;;;5037627;28;20712;-71
2021/10/08 02:36:30;;;;;;;3.33;2.37;;;10.50;99.90;;;;;;5036713;28;20983;-71
2021/10/08 02:38:55;;;;;;;2.93;2.13;;;10.50;99.90;;;;;;5053948;28;20442;-70
2021/10/08 02:41:22;;;;;;;2.53;2.33;;;10.50;99.90;;;;;;5051164;28;20223;-68
2021/10/08 02:43:48;;;;;;;3.47;2.13;;;10.50;99.90;;;;;;5036345;28;20470;-71
2021/10/08 02:46:14;;;;;;;1.97;1.77;;;10.50;99.90;;;;;;5037202;28;20981;-68
2021/10/08 02:48:40;;;;;;;3.50;2.50;;;10.50;99.90;;;;;;5053709;28;20460;-70
2021/10/08 02:51:06;;;;;;;3.00;2.40;;;10.50;99.90;;;;;;5034537;28;20458;-70
2021/10/08 02:53:33;;;;;;;2.50;2.30;;;10.50;99.90;;;;;;5035847;28;20446;-70
2021/10/08 02:55:59;;;;;;;2.20;2.00;;;10.40;99.90;;;;;;5037166;28;20460;-70
2021/10/08 02:58:25;;;;;;;3.13;2.00;;;10.40;99.90;;;;;;5053688;28;20290;-70
2021/10/08 03:00:51;;;;;;;5.50;2.80;;;10.40;99.90;;;;;;5036737;28;20288;-70
2021/10/08 03:03:17;;;;;;;2.80;2.20;;;10.40;99.90;;;;;;5035724;28;20969;-70
2021/10/08 03:05:44;;;;;;;2.90;2.50;;;10.40;99.90;;;;;;5053178;28;20212;-70
2021/10/08 03:08:10;;;;;;;6.90;2.47;;;10.40;99.90;;;;;;5037218;28;20876;-71
2021/10/08 03:10:37;;;;;;;3.57;2.00;;;10.40;99.90;;;;;;5066816;28;20513;-69
2021/10/08 03:13:03;;;;;;;3.23;2.53;;;10.40;99.90;;;;;;5035410;28;20552;-70
2021/10/08 03:15:31;;;;;;;2.20;1.77;;;10.40;99.90;;;;;;5047629;28;20219;-70
2021/10/08 03:17:58;;;;;;;3.90;2.40;;;10.40;99.90;;;;;;5048950;28;20822;-70
2021/10/08 03:20:24;;;;;;;3.97;2.07;;;10.30;99.90;;;;;;5051864;28;20456;-70
2021/10/08 03:22:49;;;;;;;2.83;2.37;;;10.30;99.90;;;;;;5035223;28;20458;-70
2021/10/08 03:25:17;;;;;;;4.27;2.13;;;10.30;99.90;;;;;;5032614;28;20219;-70
2021/10/08 03:27:43;;;;;;;3.60;2.80;;;10.30;99.90;;;;;;5047011;28;20539;-70
2021/10/08 03:30:12;;;;;;;3.60;2.63;;;10.30;99.90;;;;;;5035716;28;20227;-70
2021/10/08 03:32:38;;;;;;;7.37;3.20;;;10.20;99.90;;;;;;5044680;28;20470;-70
2021/10/08 03:35:05;;;;;;;7.47;3.80;;;10.20;99.90;;;;;;5052802;28;20458;-70
2021/10/08 03:37:47;;;;;;;2.83;2.47;;;10.20;99.90;;;;;;5051062;28;20491;-70
2021/10/08 03:40:21;;;;;;;3.37;2.83;;;10.20;99.90;;;;;;5052522;28;20450;-70
2021/10/08 03:42:47;;;;;;;3.43;2.80;;;10.20;99.90;;;;;;5056940;28;20453;-71
2021/10/08 03:45:15;;;;;;;4.47;2.60;;;10.20;99.90;;;;;;5052607;28;20461;-70
2021/10/08 03:50:27;;;;;;;5.07;2.90;;;10.20;99.90;;;;;;5021217;28;20446;-70
2021/10/08 03:52:53;;;;;;;2.30;2.10;;;10.20;99.90;;;;;;5051114;28;20465;-69
2021/10/08 03:55:19;;;;;;;3.83;2.30;;;10.20;99.90;;;;;;5035798;28;20223;-70
2021/10/08 03:57:45;;;;;;;3.30;2.90;;;10.20;99.90;;;;;;5035563;28;20242;-70
2021/10/08 04:00:12;;;;;;;6.27;2.43;;;10.10;99.90;;;;;;5036637;28;20268;-70
2021/10/08 04:02:55;;;;;;;3.63;2.10;;;10.10;99.90;;;;;;5050782;28;20444;-70
2021/10/08 04:05:21;;;;;;;4.80;2.60;;;10.10;99.90;;;;;;5036369;28;20840;-70
2021/10/08 04:07:47;;;;;;;5.33;3.20;;;10.10;99.90;;;;;;5068171;28;20537;-70
2021/10/08 04:10:13;;;;;;;2.60;2.27;;;10.10;99.90;;;;;;5035654;28;20581;-70
2021/10/08 04:12:39;;;;;;;2.90;2.40;;;10.10;99.90;;;;;;5051142;28;20273;-70
2021/10/08 04:15:06;;;;;;;2.47;2.27;;;10.10;99.90;;;;;;5052765;28;20493;-70
2021/10/08 04:17:32;;;;;;;4.00;2.90;;;10.10;99.90;;;;;;5051249;28;20237;-70
2021/10/08 04:19:57;;;;;;;2.50;2.10;;;10.10;99.90;;;;;;5036319;28;20442;-70
2021/10/08 04:22:23;;;;;;;2.57;2.37;;;10.10;99.90;;;;;;5031674;28;20215;-70
2021/10/08 04:24:49;;;;;;;3.17;2.87;;;10.10;99.90;;;;;;5051372;28;20218;-70
2021/10/08 04:27:14;;;;;;;6.00;2.80;;;10.00;99.90;;;;;;5054327;28;20229;-70
2021/10/08 04:29:41;;;;;;;3.13;2.50;;;10.00;99.90;;;;;;5040298;28;20219;-70
2021/10/08 04:32:07;;;;;;;3.97;3.27;;;10.00;99.90;;;;;;5031508;28;20459;-70
2021/10/08 04:34:33;;;;;;;5.57;3.60;;;9.90;99.90;;;;;;5033391;28;20302;-70
2021/10/08 04:36:59;;;;;;;3.83;3.20;;;9.90;99.90;;;;;;5052061;28;20445;-69
2021/10/08 04:39:25;;;;;;;5.07;3.80;;;9.90;99.90;;;;;;5035772;28;20448;-69
2021/10/08 04:41:51;;;;;;;6.77;4.77;;;9.90;99.90;;;;;;5033508;28;20454;-70
2021/10/08 04:44:17;;;;;;;7.17;4.57;;;9.90;99.90;;;;;;5044042;28;20241;-70
2021/10/08 04:46:45;;;;;;;8.17;5.00;;;9.90;99.90;;;;;;5051376;28;20465;-69
2021/10/08 04:49:11;;;;;;;4.77;3.93;;;9.90;99.90;;;;;;5049092;28;20446;-70
2021/10/08 04:51:37;;;;;;;5.03;4.23;;;9.90;99.90;;;;;;5033594;28;20468;-70
2021/10/08 04:54:03;;;;;;;6.07;3.47;;;9.90;99.90;;;;;;5032896;28;20207;-70
2021/10/08 04:56:33;;;;;;;3.83;3.40;;;9.90;99.90;;;;;;5042219;28;20805;-70
2021/10/08 04:59:00;;;;;;;6.30;3.97;;;9.90;99.90;;;;;;5049995;28;20464;-70
2021/10/08 05:01:30;;;;;;;5.40;4.03;;;9.90;99.90;;;;;;5050795;28;20973;-70
2021/10/08 05:03:57;;;;;;;4.17;3.30;;;9.90;99.90;;;;;;5051203;28;21024;-70
2021/10/08 05:06:23;;;;;;;4.50;3.70;;;9.90;99.90;;;;;;5035056;28;20536;-70
2021/10/08 05:08:54;;;;;;;6.10;4.13;;;9.90;99.90;;;;;;5044443;28;20521;-70
2021/10/08 05:11:22;;;;;;;9.60;4.00;;;9.80;99.90;;;;;;5025885;28;20585;-69
2021/10/08 05:13:48;;;;;;;4.20;3.80;;;9.80;99.90;;;;;;5060258;28;20454;-69
2021/10/08 05:16:14;;;;;;;6.93;4.30;;;9.80;99.90;;;;;;5037410;28;20969;-69
2021/10/08 05:18:40;;;;;;;4.63;3.70;;;9.80;99.90;;;;;;5029361;28;20213;-70
2021/10/08 05:21:06;;;;;;;3.63;3.30;;;9.80;99.90;;;;;;5034590;28;20211;-70
2021/10/08 05:23:34;;;;;;;4.93;3.70;;;9.80;99.90;;;;;;5049153;28;20211;-69
2021/10/08 05:26:00;;;;;;;5.50;4.60;;;9.80;99.90;;;;;;5034623;28;20441;-70
2021/10/08 05:28:26;;;;;;;4.57;3.90;;;9.70;99.90;;;;;;5027270;28;20453;-70
2021/10/08 05:30:53;;;;;;;6.70;4.37;;;9.70;99.90;;;;;;5016535;28;20443;-70
2021/10/08 05:33:20;;;;;;;5.33;3.67;;;9.70;99.90;;;;;;5066566;28;20493;-68
2021/10/08 05:35:47;;;;;;;4.20;3.80;;;9.70;99.90;;;;;;5051025;28;21034;-70
2021/10/08 05:38:13;;;;;;;8.53;4.00;;;9.70;99.90;;;;;;5027148;28;20449;-70
2021/10/08 05:40:39;;;;;;;5.73;4.03;;;9.70;99.90;;;;;;5066582;28;20449;-70
2021/10/08 05:43:04;;;;;;;5.53;4.00;;;9.70;99.90;;;;;;5050699;28;20396;-70
2021/10/08 05:45:34;;;;;;;5.40;4.30;;;9.70;99.90;;;;;;5033967;28;20270;-70
2021/10/08 05:48:00;;;;;;;5.37;4.30;;;9.70;99.90;;;;;;5045113;28;20458;-70
2021/10/08 05:50:26;;;;;;;6.50;4.80;;;9.70;99.90;;;;;;5049580;28;20215;-71
2021/10/08 05:52:52;;;;;;;6.60;4.10;;;9.60;99.90;;;;;;5030596;28;20775;-71
2021/10/08 05:55:21;;;;;;;5.43;4.30;;;9.60;99.90;;;;;;5031109;28;20484;-70
2021/10/08 05:57:47;;;;;;;7.53;5.70;;;9.60;99.90;;;;;;5059721;28;20223;-71
2021/10/08 06:00:13;;;;;;;9.80;5.70;;;9.70;99.90;;;;;;5024219;28;20468;-70
2021/10/08 06:02:44;;;;;;;9.40;5.67;;;9.70;99.90;;;;;;5034292;28;20223;-70
2021/10/08 06:05:14;;;;;;;10.43;6.03;;;9.70;99.90;;;;;;5037493;28;20478;-70
2021/10/08 06:07:40;;;;;;;18.97;8.57;;;9.70;99.90;;;;;;5048316;28;20458;-70
2021/10/08 06:10:07;;;;;;;25.53;13.43;;;9.70;99.90;;;;;;5049765;28;20471;-70
2021/10/08 06:12:34;;;;;;;17.10;8.80;;;9.70;99.90;;;;;;5050163;28;20472;-71
2021/10/08 06:15:00;;;;;;;12.23;7.10;;;9.70;99.90;;;;;;5036112;28;20440;-70
2021/10/08 06:17:26;;;;;;;11.40;7.13;;;9.70;99.90;;;;;;5036509;28;20309;-69
2021/10/08 06:19:52;;;;;;;13.60;8.30;;;9.70;99.90;;;;;;5046462;28;20492;-70
2021/10/08 06:22:18;;;;;;;12.30;7.00;;;9.70;99.90;;;;;;5041787;28;20453;-70
2021/10/08 06:24:43;;;;;;;9.03;6.07;;;9.70;99.90;;;;;;5052757;28;20215;-69
2021/10/08 06:27:09;;;;;;;11.93;5.70;;;9.70;99.90;;;;;;5052532;28;20314;-71
2021/10/08 06:29:35;;;;;;;6.63;4.90;;;9.70;99.90;;;;;;5044824;28;20208;-70
2021/10/08 06:32:01;;;;;;;8.40;5.30;;;9.70;99.90;;;;;;5041893;28;20227;-71
2021/10/08 06:34:27;;;;;;;8.50;5.13;;;9.70;99.90;;;;;;5036032;28;20445;-70
2021/10/08 06:36:53;;;;;;;5.70;4.27;;;9.70;99.90;;;;;;5044792;28;20465;-68
2021/10/08 06:39:19;;;;;;;5.20;3.90;;;9.70;99.90;;;;;;5049120;28;20675;-70
2021/10/08 06:41:45;;;;;;;5.93;4.03;;;9.70;99.90;;;;;;5044972;28;20695;-70
2021/10/08 06:44:20;;;;;;;5.73;4.33;;;9.70;99.90;;;;;;5037091;28;20520;-70
2021/10/08 06:46:51;;;;;;;8.20;4.80;;;9.80;99.90;;;;;;5051404;28;20465;-70
2021/10/08 06:49:17;;;;;;;4.37;3.97;;;9.80;99.90;;;;;;5034727;28;21055;-70
2021/10/08 06:51:43;;;;;;;7.30;4.10;;;9.80;99.90;;;;;;5050932;28;20242;-69
2021/10/08 06:54:10;;;;;;;12.73;4.40;;;9.80;99.90;;;;;;5033332;28;20228;-70
2021/10/08 06:56:35;;;;;;;6.10;4.50;;;9.80;99.90;;;;;;5024696;28;20872;-70
2021/10/08 06:59:07;;;;;;;5.90;4.07;;;9.90;99.90;;;;;;5037943;28;20905;-70
2021/10/08 07:01:32;;;;;;;6.63;3.20;;;9.90;99.90;;;;;;5033962;28;20525;-70
2021/10/08 07:03:59;;;;;;;6.23;4.07;;;9.90;99.90;;;;;;5041643;28;20225;-70
2021/10/08 07:06:26;;;;;;;5.90;4.07;;;9.90;99.90;;;;;;5034452;28;20464;-69
2021/10/08 07:09:02;;;;;;;7.23;3.33;;;10.00;99.90;;;;;;5048760;28;20437;-70
2021/10/08 07:11:27;;;;;;;4.90;3.07;;;10.00;99.90;;;;;;5031876;28;20472;-70
2021/10/08 07:13:54;;;;;;;3.57;3.17;;;10.10;99.90;;;;;;5029460;28;20235;-70
2021/10/08 07:16:20;;;;;;;3.80;3.50;;;10.10;99.90;;;;;;5066621;28;20249;-70
2021/10/08 07:18:53;;;;;;;5.10;4.10;;;10.20;99.90;;;;;;5048548;28;20457;-70
2021/10/08 07:21:18;;;;;;;4.57;3.70;;;10.20;99.90;;;;;;5047807;28;20227;-69
2021/10/08 07:23:45;;;;;;;7.10;4.10;;;10.30;99.90;;;;;;5028422;28;20462;-70
2021/10/08 07:26:19;;;;;;;5.37;4.90;;;10.30;99.90;;;;;;5048694;28;20231;-70
2021/10/08 07:28:44;;;;;;;9.03;4.30;;;10.30;99.90;;;;;;5045579;28;20480;-70
2021/10/08 07:31:11;;;;;;;5.17;3.60;;;10.40;99.90;;;;;;5032782;28;20450;-70
2021/10/08 07:33:37;;;;;;;8.13;3.90;;;10.40;99.90;;;;;;5028955;28;20219;-71
2021/10/08 07:36:04;;;;;;;7.97;4.27;;;10.50;99.90;;;;;;5051457;28;20506;-70
2021/10/08 07:38:30;;;;;;;6.83;3.83;;;10.60;99.90;;;;;;5048283;28;20215;-69
2021/10/08 07:40:56;;;;;;;3.90;3.43;;;10.60;99.90;;;;;;5051454;28;20968;-70
2021/10/08 07:43:21;;;;;;;4.20;3.80;;;10.80;99.90;;;;;;5032976;28;20454;-71
2021/10/08 07:45:47;;;;;;;4.57;3.60;;;10.90;99.90;;;;;;5017552;28;20461;-71
2021/10/08 07:48:13;;;;;;;4.10;3.57;;;11.00;99.90;;;;;;5047524;28;20218;-70
2021/10/08 07:50:39;;;;;;;5.63;3.50;;;11.10;99.90;;;;;;5048512;28;20604;-70
2021/10/08 07:53:05;;;;;;;4.27;3.87;;;11.20;99.90;;;;;;5047605;28;20326;-71
2021/10/08 07:55:30;;;;;;;4.43;3.93;;;11.30;99.90;;;;;;5063171;28;20219;-71
2021/10/08 07:57:56;;;;;;;5.00;3.97;;;11.50;99.90;;;;;;5028744;28;20460;-71
2021/10/08 08:00:22;;;;;;;5.23;4.00;;;11.50;99.90;;;;;;5030566;28;20227;-68
2021/10/08 08:02:48;;;;;;;6.60;4.50;;;11.60;99.90;;;;;;5029882;28;20251;-70
2021/10/08 08:05:13;;;;;;;6.57;4.00;;;11.70;99.90;;;;;;5048570;28;20306;-70
2021/10/08 08:07:39;;;;;;;3.87;3.23;;;11.70;99.90;;;;;;5031672;28;20223;-70
2021/10/08 08:10:08;;;;;;;5.27;3.83;;;11.80;99.90;;;;;;5047623;28;20710;-70
2021/10/08 08:12:34;;;;;;;4.60;3.50;;;11.80;99.90;;;;;;5030108;28;20465;-71
2021/10/08 08:15:01;;;;;;;5.80;4.07;;;11.90;99.90;;;;;;5031461;28;20454;-71
2021/10/08 08:17:26;;;;;;;4.40;4.00;;;12.00;99.90;;;;;;5030284;28;21048;-70
2021/10/08 08:19:52;;;;;;;6.37;3.77;;;12.10;99.90;;;;;;5047478;28;20528;-70
2021/10/08 08:22:18;;;;;;;5.47;3.33;;;12.20;99.90;;;;;;5062679;28;20251;-70
2021/10/08 08:24:43;;;;;;;4.30;3.93;;;12.30;99.90;;;;;;5041605;28;20243;-71
2021/10/08 08:27:09;;;;;;;3.83;3.30;;;12.40;99.90;;;;;;5044649;28;20304;-70
2021/10/08 08:29:35;;;;;;;5.40;4.60;;;12.60;99.90;;;;;;5061392;28;20227;-70
2021/10/08 08:32:00;;;;;;;5.70;4.43;;;12.70;99.90;;;;;;5046165;28;20334;-71
2021/10/08 08:34:27;;;;;;;3.97;3.27;;;12.80;99.90;;;;;;5039241;28;20222;-72
2021/10/08 08:36:54;;;;;;;4.70;4.20;;;13.00;99.90;;;;;;5046779;28;20243;-72
2021/10/08 08:39:21;;;;;;;4.70;4.20;;;13.00;99.90;;;;;;5046597;28;20528;-71
2021/10/08 08:41:47;;;;;;;6.27;4.03;;;13.10;99.90;;;;;;5030112;28;20450;-71
2021/10/08 08:44:13;;;;;;;7.90;4.37;;;13.20;99.90;;;;;;5024764;28;20463;-72
2021/10/08 08:46:39;;;;;;;7.27;3.93;;;13.30;99.90;;;;;;5030037;28;20446;-72
2021/10/08 08:49:05;;;;;;;4.03;3.63;;;13.40;99.90;;;;;;5031971;28;20230;-72
2021/10/08 08:51:32;;;;;;;6.57;4.80;;;13.50;99.90;;;;;;5039026;28;20240;-71
2021/10/08 08:54:01;;;;;;;4.33;3.93;;;13.50;99.90;;;;;;5045484;28;20873;-71
2021/10/08 08:56:28;;;;;;;4.40;3.80;;;13.60;99.90;;;;;;5045250;28;20466;-71
2021/10/08 08:59:04;;;;;;;4.23;3.77;;;13.70;99.90;;;;;;5064395;28;20961;-71
2021/10/08 09:01:30;;;;;;;4.30;3.60;;;13.80;99.90;;;;;;5046498;28;20518;-71
2021/10/08 09:04:02;;;;;;;4.90;4.00;;;13.90;99.90;;;;;;5046881;28;20464;-71
2021/10/08 09:06:39;;;;;;;11.50;4.63;;;14.00;99.90;;;;;;5030421;28;20453;-72
2021/10/08 09:09:19;;;;;;;8.67;4.30;;;13.90;99.90;;;;;;5043952;28;20556;-71
2021/10/08 09:11:47;;;;;;;4.80;3.77;;;13.90;99.90;;;;;;5043516;28;20466;-72
2021/10/08 09:14:17;;;;;;;4.70;4.30;;;13.90;99.90;;;;;;5030947;28;20479;-72
2021/10/08 09:17:16;;;;;;;5.97;4.27;;;14.00;99.90;;;;;;5029871;28;20461;-71
2021/10/08 09:20:05;;;;;;;3.93;3.50;;;14.10;99.90;;;;;;4984482;28;20450;-71
2021/10/08 09:22:38;;;;;;;5.07;3.70;;;14.10;99.90;;;;;;5055729;28;21060;-72
2021/10/08 09:25:12;;;;;;;4.80;4.10;;;14.20;99.90;;;;;;5031130;28;20457;-72
2021/10/08 09:27:39;;;;;;;6.27;4.80;;;14.20;99.90;;;;;;5063651;28;20464;-72
2021/10/08 09:30:06;;;;;;;5.77;4.87;;;14.30;99.90;;;;;;5029729;28;20968;-71
2021/10/08 09:32:45;;;;;;;4.67;4.03;;;14.20;99.90;;;;;;5026558;28;20474;-72
2021/10/08 09:35:12;;;;;;;5.37;4.87;;;14.20;99.90;;;;;;5055684;28;20985;-71
2021/10/08 09:37:40;;;;;;;5.60;4.90;;;14.20;99.90;;;;;;5039567;28;20457;-71
2021/10/08 09:40:26;;;;;;;5.80;3.93;;;14.30;99.90;;;;;;5032060;28;20466;-71
2021/10/08 09:43:02;;;;;;;5.77;4.60;;;14.30;99.90;;;;;;5044820;28;20970;-70
2021/10/08 09:45:34;;;;;;;5.80;5.03;;;14.40;99.90;;;;;;5069295;28;20453;-69
2021/10/08 09:48:00;;;;;;;5.20;4.70;;;14.30;99.90;;;;;;5049140;28;20920;-72
2021/10/08 09:50:26;;;;;;;5.03;4.53;;;14.30;99.90;;;;;;5032754;28;20488;-73
2021/10/08 09:53:13;;;;;;;5.23;4.83;;;14.40;99.90;;;;;;5023865;28;20314;-72
2021/10/08 09:55:39;;;;;;;5.33;4.10;;;14.40;99.90;;;;;;5066054;28;20219;-71
2021/10/08 09:58:06;;;;;;;6.07;5.00;;;14.40;99.90;;;;;;5050741;28;20462;-69
2021/10/08 10:01:10;;;;;;;5.50;4.27;;;14.50;99.90;;;;;;5043353;28;20555;-71
2021/10/08 10:03:35;;;;;;;8.27;5.40;;;14.50;99.90;;;;;;5057669;28;20468;-71
2021/10/08 10:06:04;;;;;;;6.07;4.77;;;14.50;99.90;;;;;;5045648;28;20842;-70
2021/10/08 10:08:30;;;;;;;5.10;4.50;;;14.50;99.90;;;;;;5038077;28;20227;-70
2021/10/08 10:10:58;;;;;;;5.33;4.57;;;14.60;99.90;;;;;;5070414;28;20445;-70
2021/10/08 10:13:24;;;;;;;5.60;4.93;;;14.60;99.90;;;;;;5070440;28;20465;-70
2021/10/08 10:15:51;;;;;;;6.10;5.47;;;14.70;99.90;;;;;;5037283;28;20460;-70
2021/10/08 10:18:19;;;;;;;6.60;5.20;;;14.80;99.90;;;;;;5055129;28;20536;-70
2021/10/08 10:20:50;;;;;;;5.23;4.70;;;14.80;99.90;;;;;;5053414;28;20506;-70
2021/10/08 10:23:21;;;;;;;6.73;5.73;;;14.80;99.90;;;;;;5051521;28;20662;-70
2021/10/08 10:25:49;;;;;;;6.43;5.77;;;14.80;99.90;;;;;;5036207;28;20461;-70
2021/10/08 10:28:16;;;;;;;7.00;5.07;;;14.80;99.90;;;;;;5053136;28;20464;-70
2021/10/08 10:30:44;;;;;;;6.27;5.00;;;14.90;99.90;;;;;;5040324;28;20526;-70
2021/10/08 10:33:10;;;;;;;13.57;5.57;;;14.90;99.90;;;;;;5025373;28;20452;-70
2021/10/08 10:35:47;;;;;;;6.00;4.90;;;15.00;99.90;;;;;;5025907;28;21029;-71
2021/10/08 10:38:25;;;;;;;6.13;4.87;;;15.10;99.90;;;;;;5049864;28;20461;-71
2021/10/08 10:41:24;;;;;;;4.77;4.27;;;15.10;99.90;;;;;;5033254;28;20471;-70
2021/10/08 10:43:56;;;;;;;6.40;4.60;;;15.30;99.90;;;;;;5012944;28;20454;-71
2021/10/08 10:49:36;;;;;;;;;;;;;;;;;;;;;
2021/10/08 10:51:59;;;;;;;6.33;5.10;;;15.50;99.90;;;;;;5048299;28;20458;-70
2021/10/08 10:54:37;;;;;;;4.93;3.87;;;15.60;99.90;;;;;;5031452;28;20827;-71
2021/10/08 10:57:11;;;;;;;4.40;4.00;;;15.70;99.90;;;;;;5033353;28;20469;-71
2021/10/08 10:59:41;;;;;;;6.63;4.80;;;15.60;99.90;;;;;;5047230;28;20465;-72
2021/10/08 11:02:15;;;;;;;5.10;4.60;;;15.70;99.90;;;;;;5047290;28;20502;-71
2021/10/08 11:04:46;;;;;;;5.57;4.47;;;15.70;99.90;;;;;;5028047;28;20469;-71
2021/10/08 11:07:14;;;;;;;5.33;4.80;;;15.60;99.90;;;;;;5045979;28;20518;-70
2021/10/08 11:09:42;;;;;;;6.03;5.17;;;15.70;99.90;;;;;;5047187;28;20465;-70
2021/10/08 11:12:30;;;;;;;7.00;5.23;;;15.70;99.90;;;;;;5047382;28;20463;-71
2021/10/08 11:17:57;;;;;;;5.83;4.77;;;15.90;99.90;;;;;;5060760;28;20446;-71
2021/10/08 11:20:28;;;;;;;5.40;4.83;;;15.90;99.90;;;;;;5049699;28;20441;-70
2021/10/08 11:23:04;;;;;;;6.43;5.10;;;15.90;99.90;;;;;;5019916;28;21005;-71
2021/10/08 11:25:35;;;;;;;7.40;5.63;;;15.90;99.90;;;;;;5046212;28;20843;-70
2021/10/08 11:28:01;;;;;;;7.53;5.27;;;15.90;99.90;;;;;;5065916;28;20476;-71
2021/10/08 11:30:29;;;;;;;7.07;6.33;;;15.80;99.90;;;;;;5025706;28;20847;-71
2021/10/08 11:32:56;;;;;;;7.07;5.77;;;15.90;99.90;;;;;;5017105;28;20455;-71
2021/10/08 11:35:33;;;;;;;7.30;5.43;;;15.90;99.90;;;;;;5041800;28;20832;-71
2021/10/08 11:38:00;;;;;;;7.60;5.47;;;16.00;99.90;;;;;;5063600;28;20983;-70
2021/10/08 11:40:33;;;;;;;7.97;5.90;;;16.10;99.90;;;;;;5030699;28;20477;-71
2021/10/08 11:43:10;;;;;;;7.87;6.27;;;16.10;99.90;;;;;;5043569;28;20454;-71
2021/10/08 11:45:52;;;;;;;9.40;7.10;;;16.10;99.90;;;;;;5028255;28;20501;-70
2021/10/08 11:48:27;;;;;;;8.10;6.60;;;16.00;99.90;;;;;;5044474;28;20462;-70
2021/10/08 11:51:03;;;;;;;7.53;6.20;;;16.00;99.90;;;;;;5029400;28;20456;-71
2021/10/08 11:53:41;;;;;;;8.20;7.00;;;16.00;99.90;;;;;;5040707;28;20540;-69
2021/10/08 11:56:24;;;;;;;9.33;7.13;;;16.00;99.90;;;;;;5031468;28;20457;-71
2021/10/08 11:58:52;;;;;;;13.37;6.67;;;16.00;99.90;;;;;;5045423;28;20441;-71
2021/10/08 12:01:22;;;;;;;10.07;7.40;;;16.10;99.90;;;;;;5050955;28;20458;-70
2021/10/08 12:03:49;;;;;;;9.93;7.63;;;16.00;99.90;;;;;;5033830;28;20461;-70
2021/10/08 12:06:21;;;;;;;10.07;7.70;;;15.90;99.90;;;;;;5051916;28;20461;-70
2021/10/08 12:08:47;;;;;;;13.43;8.13;;;15.90;99.90;;;;;;5041321;28;20477;-69
2021/10/08 12:11:17;;;;;;;10.00;8.03;;;15.90;99.90;;;;;;5037959;28;20466;-71
2021/10/08 12:13:44;;;;;;;12.00;7.50;;;15.90;99.90;;;;;;5064750;28;20687;-70
2021/10/08 12:16:16;;;;;;;10.73;7.80;;;15.90;99.90;;;;;;5043211;28;20893;-70
2021/10/08 12:18:50;;;;;;;10.93;7.93;;;15.90;99.90;;;;;;5015562;28;20466;-70
2021/10/08 12:21:22;;;;;;;9.90;7.80;;;15.90;99.90;;;;;;5033276;28;20477;-70
2021/10/08 12:24:11;;;;;;;11.33;9.20;;;15.90;99.90;;;;;;5015769;28;20536;-71
2021/10/08 12:26:54;;;;;;;7.87;7.07;;;16.00;99.90;;;;;;5056563;28;20466;-70
2021/10/08 12:29:20;;;;;;;10.90;7.50;;;16.00;99.90;;;;;;5050207;28;20446;-70
2021/10/08 12:32:03;;;;;;;10.80;7.90;;;16.00;99.90;;;;;;5030833;28;20477;-70
2021/10/08 12:34:48;;;;;;;9.73;7.07;;;16.00;99.90;;;;;;5042574;28;20589;-69
2021/10/08 12:37:28;;;;;;;10.90;7.90;;;16.00;99.90;;;;;;5046104;28;20465;-71
2021/10/08 12:40:09;;;;;;;8.93;8.00;;;16.00;99.90;;;;;;5046320;28;20449;-71
2021/10/08 12:42:38;;;;;;;11.53;8.83;;;16.00;99.90;;;;;;5055758;28;20450;-71
2021/10/08 12:45:19;;;;;;;10.43;8.00;;;16.00;99.90;;;;;;5047711;28;20526;-71
2021/10/08 12:47:44;;;;;;;10.90;7.93;;;16.00;99.90;;;;;;5027986;28;20508;-71
2021/10/08 12:50:17;;;;;;;8.60;7.37;;;16.00;99.90;;;;;;5028211;28;20446;-71
2021/10/08 12:52:49;;;;;;;10.17;8.07;;;16.00;99.90;;;;;;5019728;28;20227;-70
2021/10/08 12:55:17;;;;;;;10.37;8.57;;;16.10;99.90;;;;;;5046466;28;20587;-72
2021/10/08 12:57:59;;;;;;;11.80;7.87;;;16.10;99.90;;;;;;5030076;28;21083;-71
2021/10/08 13:00:47;;;;;;;10.20;8.20;;;16.10;99.90;;;;;;5065963;28;20453;-70
2021/10/08 13:03:35;;;;;;;9.53;7.40;;;16.10;99.90;;;;;;5040676;28;20492;-70
2021/10/08 13:06:25;;;;;;;10.43;8.27;;;16.20;99.90;;;;;;5030891;28;20449;-70